Jakubowski, Brian
United StatesManBorn 19822009 – 2025Runner id 63710
Events
29
2009 – 2025
Best pace
12.950
km/h · 2010
Best finish
3rd
of 52 · 2010
Distance raced
2,372
km · splits not double-counted
Pace over time
km/h · higher is faster
Pace over time: 29 races from 2009 to 2025, ranging from 3.38 to 12.95 kilometres per hour, where higher is faster. A second, age-graded series is drawn above it; the gap between the two is the age credit.
- Actual pace
- Age-graded pace
Results
| Date | Event | Distance | Result | Pace km/h | Placing |
|---|---|---|---|---|---|
| 2009-05-09 | 50mi | 12:14:16 h | 6.575 | 59/72 | |
| 2009-07-18 | 24h | 122.477 km | 5.103 | 45/152 | |
| 2009-08-09 | Turkey Swamp 50 km RaceUnited States | 50km | 5:01:48 h | 9.940 | 4/58 |
| 2010-01-09 | 50mi | 7:40:06 h | 10.493 | 3/52 | |
| 2010-03-07 | 50km | 3:51:40 h | 12.950 | 19/109 | |
| 2010-06-26 | Running With The Devil 50 Mile RaceUnited States | 50mi | 10:27:04 h | 7.699 | 10/25 |
| 2010-07-17 | 24h | 108.868 km | 4.536 | 59/158 | |
| 2010-08-08 | Turkey Swamp 50 km RaceUnited States | 50km | 5:13:34 h | 9.567 | 11/45 |
| 2010-11-20 | 50mi | 8:22:44 h | 9.604 | 139/1014 | |
| 2011-05-22 | Dirty German Endurance Fest 50 MileUnited States | 50mi | 9:24:44 h | 8.549 | 24/48 |
| 2011-07-16 | 24h | 136.086 km | 5.670 | 33/198 | |
| 2012-01-07 | 50mi | 8:06:51 h | 9.917 | 8/44 | |
| 2012-03-24 | 100mi | 27:18:39 h | 5.893 | 38/46 | |
| 2012-05-20 | Dirty German Endurance Fest 50 kmUnited States | 50km | 5:25:12 h | 9.225 | 36/118 |
| 2012-07-14 | 24h | 122.477 km | 5.103 | 55/195 | |
| 2013-01-05 | 50km | 6:26:00 h | 7.772 | 55/99 | |
| 2013-03-23 | New Jersey Ultra Festival 50 km RaceUnited States | 50km | 5:24:30 h | 9.245 | 17/61 |
| 2013-09-01 | 12h | 64.373 km | 5.364 | 61/115 | |
| 2013-09-21 | 24h | 81.110 km | 3.380 | 31/63 | |
| 2014-01-25 | 50mi | 10:39:17 h | 7.552 | 14/19 | |
| 2014-05-17 | 12h | 80.467 km | 6.706 | 4/16 | |
| 2014-07-19 | 24h | 122.535 km | 5.106 | 32/140 | |
| 2015-07-18 | Lone Ranger 24 hr Urban UltraUnited States | 24h | 108.920 km | 4.538 | 34/128 |
| 2016-05-15 | 50km | 5:20:47 h | 9.352 | 56/166 | |
| 2021-08-07 | 12h | 90.525 km | 7.544 | 10/77 | |
| 2022-08-06 | 12h | 60.352 km | 5.029 | 36/66 | |
| 2023-08-05 | 12h | 48.286 km | 4.024 | 60/63 | |
| 2024-08-03 | 12h | 66.387 km | 5.532 | 47/93 | |
| 2025-08-02 | 12h | 84.731 km | 7.061 | 31/105 |